sensor_id;sensor_type;location;lat;lon;timestamp;temperature;humidity
10802;DHT22;5453;50.852;7.102;2023-10-09T00:01:09;15.60;99.90
10802;DHT22;5453;50.852;7.102;2023-10-09T00:03:45;15.60;99.90
10802;DHT22;5453;50.852;7.102;2023-10-09T00:06:22;15.60;99.90
10802;DHT22;5453;50.852;7.102;2023-10-09T00:09:08;15.60;99.90
10802;DHT22;5453;50.852;7.102;2023-10-09T00:11:48;15.60;99.90
10802;DHT22;5453;50.852;7.102;2023-10-09T00:14:29;15.60;99.90
10802;DHT22;5453;50.852;7.102;2023-10-09T00:17:09;15.50;99.90
10802;DHT22;5453;50.852;7.102;2023-10-09T00:19:49;15.50;99.90
10802;DHT22;5453;50.852;7.102;2023-10-09T00:22:25;15.50;99.90
10802;DHT22;5453;50.852;7.102;2023-10-09T00:24:59;15.40;99.90
10802;DHT22;5453;50.852;7.102;2023-10-09T00:27:52;15.40;99.90
10802;DHT22;5453;50.852;7.102;2023-10-09T00:30:24;15.40;99.90
10802;DHT22;5453;50.852;7.102;2023-10-09T00:33:02;15.40;99.90
10802;DHT22;5453;50.852;7.102;2023-10-09T00:35:38;15.40;99.90
10802;DHT22;5453;50.852;7.102;2023-10-09T00:38:25;15.30;99.90
10802;DHT22;5453;50.852;7.102;2023-10-09T00:41:04;15.40;99.90
10802;DHT22;5453;50.852;7.102;2023-10-09T00:43:42;15.40;99.90
10802;DHT22;5453;50.852;7.102;2023-10-09T00:46:15;15.40;99.90
10802;DHT22;5453;50.852;7.102;2023-10-09T00:48:57;15.40;99.90
10802;DHT22;5453;50.852;7.102;2023-10-09T00:51:32;15.40;99.90
10802;DHT22;5453;50.852;7.102;2023-10-09T00:54:07;15.40;99.90
10802;DHT22;5453;50.852;7.102;2023-10-09T00:56:45;15.40;99.90
10802;DHT22;5453;50.852;7.102;2023-10-09T00:59:28;15.30;99.90
10802;DHT22;5453;50.852;7.102;2023-10-09T01:02:02;15.30;99.90
10802;DHT22;5453;50.852;7.102;2023-10-09T01:04:37;15.30;99.90
10802;DHT22;5453;50.852;7.102;2023-10-09T01:07:17;15.30;99.90
10802;DHT22;5453;50.852;7.102;2023-10-09T01:09:56;15.30;99.90
10802;DHT22;5453;50.852;7.102;2023-10-09T01:12:29;15.20;99.90
10802;DHT22;5453;50.852;7.102;2023-10-09T01:15:02;15.20;99.90
10802;DHT22;5453;50.852;7.102;2023-10-09T01:17:38;15.10;99.90
10802;DHT22;5453;50.852;7.102;2023-10-09T01:20:22;15.00;99.90
10802;DHT22;5453;50.852;7.102;2023-10-09T01:23:02;15.00;99.90
10802;DHT22;5453;50.852;7.102;2023-10-09T01:25:35;14.90;99.90
10802;DHT22;5453;50.852;7.102;2023-10-09T01:28:16;14.90;99.90
10802;DHT22;5453;50.852;7.102;2023-10-09T01:30:49;14.90;99.90
10802;DHT22;5453;50.852;7.102;2023-10-09T01:33:25;14.90;99.90
10802;DHT22;5453;50.852;7.102;2023-10-09T01:35:59;14.90;99.90
10802;DHT22;5453;50.852;7.102;2023-10-09T01:38:33;14.80;99.90
10802;DHT22;5453;50.852;7.102;2023-10-09T01:41:16;14.80;99.90
10802;DHT22;5453;50.852;7.102;2023-10-09T01:43:50;14.80;99.90
10802;DHT22;5453;50.852;7.102;2023-10-09T01:46:31;14.80;99.90
10802;DHT22;5453;50.852;7.102;2023-10-09T01:49:04;14.80;99.90
10802;DHT22;5453;50.852;7.102;2023-10-09T01:51:47;14.80;99.90
10802;DHT22;5453;50.852;7.102;2023-10-09T01:54:22;14.80;99.90
10802;DHT22;5453;50.852;7.102;2023-10-09T01:57:09;14.80;99.90
10802;DHT22;5453;50.852;7.102;2023-10-09T01:59:44;14.80;99.90
10802;DHT22;5453;50.852;7.102;2023-10-09T02:02:20;14.80;99.90
10802;DHT22;5453;50.852;7.102;2023-10-09T02:05:03;14.80;99.90
10802;DHT22;5453;50.852;7.102;2023-10-09T02:07:40;14.80;99.90
10802;DHT22;5453;50.852;7.102;2023-10-09T02:10:16;14.80;99.90
10802;DHT22;5453;50.852;7.102;2023-10-09T02:13:04;14.80;99.90
10802;DHT22;5453;50.852;7.102;2023-10-09T02:15:39;14.80;99.90
10802;DHT22;5453;50.852;7.102;2023-10-09T02:18:24;14.70;99.90
10802;DHT22;5453;50.852;7.102;2023-10-09T02:21:26;14.70;99.90
10802;DHT22;5453;50.852;7.102;2023-10-09T02:24:04;14.70;99.90
10802;DHT22;5453;50.852;7.102;2023-10-09T02:26:58;14.70;99.90
10802;DHT22;5453;50.852;7.102;2023-10-09T02:29:40;14.70;99.90
10802;DHT22;5453;50.852;7.102;2023-10-09T02:32:13;14.70;99.90
10802;DHT22;5453;50.852;7.102;2023-10-09T02:34:55;14.70;99.90
10802;DHT22;5453;50.852;7.102;2023-10-09T02:37:37;14.70;99.90
10802;DHT22;5453;50.852;7.102;2023-10-09T02:40:10;14.80;99.90
10802;DHT22;5453;50.852;7.102;2023-10-09T02:42:55;14.70;99.90
10802;DHT22;5453;50.852;7.102;2023-10-09T02:45:27;14.70;99.90
10802;DHT22;5453;50.852;7.102;2023-10-09T02:48:06;14.70;99.90
10802;DHT22;5453;50.852;7.102;2023-10-09T02:50:41;14.70;99.90
10802;DHT22;5453;50.852;7.102;2023-10-09T02:53:15;14.70;99.90
10802;DHT22;5453;50.852;7.102;2023-10-09T02:55:50;14.70;99.90
10802;DHT22;5453;50.852;7.102;2023-10-09T02:58:43;14.70;99.90
10802;DHT22;5453;50.852;7.102;2023-10-09T03:01:19;14.70;99.90
10802;DHT22;5453;50.852;7.102;2023-10-09T03:03:50;14.70;99.90
10802;DHT22;5453;50.852;7.102;2023-10-09T03:06:22;14.70;99.90
10802;DHT22;5453;50.852;7.102;2023-10-09T03:09:02;14.70;99.90
10802;DHT22;5453;50.852;7.102;2023-10-09T03:11:50;14.70;99.90
10802;DHT22;5453;50.852;7.102;2023-10-09T03:14:25;14.70;99.90
10802;DHT22;5453;50.852;7.102;2023-10-09T03:17:00;14.70;99.90
10802;DHT22;5453;50.852;7.102;2023-10-09T03:19:33;14.70;99.90
10802;DHT22;5453;50.852;7.102;2023-10-09T03:22:08;14.70;99.90
10802;DHT22;5453;50.852;7.102;2023-10-09T03:24:42;14.70;99.90
10802;DHT22;5453;50.852;7.102;2023-10-09T03:27:15;14.70;99.90
10802;DHT22;5453;50.852;7.102;2023-10-09T03:29:49;14.70;99.90
10802;DHT22;5453;50.852;7.102;2023-10-09T03:32:24;14.70;99.90
10802;DHT22;5453;50.852;7.102;2023-10-09T03:34:56;14.70;99.90
10802;DHT22;5453;50.852;7.102;2023-10-09T03:37:33;14.70;99.90
10802;DHT22;5453;50.852;7.102;2023-10-09T03:40:06;14.70;99.90
10802;DHT22;5453;50.852;7.102;2023-10-09T03:42:46;14.70;99.90
10802;DHT22;5453;50.852;7.102;2023-10-09T03:45:20;14.70;99.90
10802;DHT22;5453;50.852;7.102;2023-10-09T03:47:58;14.80;99.90
10802;DHT22;5453;50.852;7.102;2023-10-09T03:50:39;14.80;99.90
10802;DHT22;5453;50.852;7.102;2023-10-09T03:53:14;14.70;99.90
10802;DHT22;5453;50.852;7.102;2023-10-09T03:55:47;14.70;99.90
10802;DHT22;5453;50.852;7.102;2023-10-09T03:58:20;14.70;99.90
10802;DHT22;5453;50.852;7.102;2023-10-09T04:00:54;14.70;99.90
10802;DHT22;5453;50.852;7.102;2023-10-09T04:03:26;14.70;99.90
10802;DHT22;5453;50.852;7.102;2023-10-09T04:05:58;14.70;99.90
10802;DHT22;5453;50.852;7.102;2023-10-09T04:08:31;14.80;99.90
10802;DHT22;5453;50.852;7.102;2023-10-09T04:11:04;14.70;99.90
10802;DHT22;5453;50.852;7.102;2023-10-09T04:13:46;14.80;99.90
10802;DHT22;5453;50.852;7.102;2023-10-09T04:16:21;14.80;99.90
10802;DHT22;5453;50.852;7.102;2023-10-09T04:19:22;14.80;99.90
10802;DHT22;5453;50.852;7.102;2023-10-09T04:21:57;14.80;99.90
10802;DHT22;5453;50.852;7.102;2023-10-09T04:24:29;14.80;99.90
10802;DHT22;5453;50.852;7.102;2023-10-09T04:27:11;14.80;99.90
10802;DHT22;5453;50.852;7.102;2023-10-09T04:29:44;14.80;99.90
10802;DHT22;5453;50.852;7.102;2023-10-09T04:32:21;14.80;99.90
10802;DHT22;5453;50.852;7.102;2023-10-09T04:34:55;14.90;99.90
10802;DHT22;5453;50.852;7.102;2023-10-09T04:37:48;14.90;99.90
10802;DHT22;5453;50.852;7.102;2023-10-09T04:40:31;14.90;99.90
10802;DHT22;5453;50.852;7.102;2023-10-09T04:43:19;14.90;99.90
10802;DHT22;5453;50.852;7.102;2023-10-09T04:46:00;15.00;99.90
10802;DHT22;5453;50.852;7.102;2023-10-09T04:48:40;15.00;99.90
10802;DHT22;5453;50.852;7.102;2023-10-09T04:51:16;15.00;99.90
10802;DHT22;5453;50.852;7.102;2023-10-09T04:54:05;15.00;99.90
10802;DHT22;5453;50.852;7.102;2023-10-09T04:57:03;15.10;99.90
10802;DHT22;5453;50.852;7.102;2023-10-09T04:59:48;15.10;99.90
10802;DHT22;5453;50.852;7.102;2023-10-09T05:02:22;15.10;99.90
10802;DHT22;5453;50.852;7.102;2023-10-09T05:04:57;15.10;99.90
10802;DHT22;5453;50.852;7.102;2023-10-09T05:07:47;15.10;99.90
10802;DHT22;5453;50.852;7.102;2023-10-09T05:10:25;15.20;99.90
10802;DHT22;5453;50.852;7.102;2023-10-09T05:12:58;15.20;99.90
10802;DHT22;5453;50.852;7.102;2023-10-09T05:15:29;15.20;99.90
10802;DHT22;5453;50.852;7.102;2023-10-09T05:18:05;15.20;99.90
10802;DHT22;5453;50.852;7.102;2023-10-09T05:20:41;15.20;99.90
10802;DHT22;5453;50.852;7.102;2023-10-09T05:23:36;15.30;99.90
10802;DHT22;5453;50.852;7.102;2023-10-09T05:26:15;15.20;99.90
10802;DHT22;5453;50.852;7.102;2023-10-09T05:29:08;15.20;99.90
10802;DHT22;5453;50.852;7.102;2023-10-09T05:31:50;15.20;99.90
10802;DHT22;5453;50.852;7.102;2023-10-09T05:34:34;15.20;99.90
10802;DHT22;5453;50.852;7.102;2023-10-09T05:37:30;15.30;99.90
10802;DHT22;5453;50.852;7.102;2023-10-09T05:40:04;15.30;99.90
10802;DHT22;5453;50.852;7.102;2023-10-09T05:42:53;15.30;99.90
10802;DHT22;5453;50.852;7.102;2023-10-09T05:45:30;15.30;99.90
10802;DHT22;5453;50.852;7.102;2023-10-09T05:48:20;15.30;99.90
10802;DHT22;5453;50.852;7.102;2023-10-09T05:51:10;15.40;99.90
10802;DHT22;5453;50.852;7.102;2023-10-09T05:54:05;15.40;99.90
10802;DHT22;5453;50.852;7.102;2023-10-09T05:56:54;15.40;99.90
10802;DHT22;5453;50.852;7.102;2023-10-09T06:00:01;15.30;99.90
10802;DHT22;5453;50.852;7.102;2023-10-09T06:02:51;15.40;99.90
10802;DHT22;5453;50.852;7.102;2023-10-09T06:05:40;15.40;99.90
10802;DHT22;5453;50.852;7.102;2023-10-09T06:08:21;15.40;99.90
10802;DHT22;5453;50.852;7.102;2023-10-09T06:11:00;15.40;99.90
10802;DHT22;5453;50.852;7.102;2023-10-09T06:13:37;15.40;99.90
10802;DHT22;5453;50.852;7.102;2023-10-09T06:16:16;15.50;99.90
10802;DHT22;5453;50.852;7.102;2023-10-09T06:18:50;15.40;99.90
10802;DHT22;5453;50.852;7.102;2023-10-09T06:21:38;15.50;99.90
10802;DHT22;5453;50.852;7.102;2023-10-09T06:24:11;15.50;99.90
10802;DHT22;5453;50.852;7.102;2023-10-09T06:26:51;15.50;99.90
10802;DHT22;5453;50.852;7.102;2023-10-09T06:29:43;15.50;99.90
10802;DHT22;5453;50.852;7.102;2023-10-09T06:32:44;15.50;99.90
10802;DHT22;5453;50.852;7.102;2023-10-09T06:35:33;15.50;99.90
10802;DHT22;5453;50.852;7.102;2023-10-09T06:38:09;15.60;99.90
10802;DHT22;5453;50.852;7.102;2023-10-09T06:41:01;15.50;99.90
10802;DHT22;5453;50.852;7.102;2023-10-09T06:43:49;15.60;99.90
10802;DHT22;5453;50.852;7.102;2023-10-09T06:46:23;15.60;99.90
10802;DHT22;5453;50.852;7.102;2023-10-09T06:49:13;15.60;99.90
10802;DHT22;5453;50.852;7.102;2023-10-09T06:52:08;15.70;99.90
10802;DHT22;5453;50.852;7.102;2023-10-09T06:54:46;15.70;99.90
10802;DHT22;5453;50.852;7.102;2023-10-09T06:57:21;15.70;99.90
10802;DHT22;5453;50.852;7.102;2023-10-09T07:00:12;15.80;99.90
10802;DHT22;5453;50.852;7.102;2023-10-09T07:03:08;15.80;99.90
10802;DHT22;5453;50.852;7.102;2023-10-09T07:05:42;15.90;99.90
10802;DHT22;5453;50.852;7.102;2023-10-09T07:08:35;16.00;99.90
10802;DHT22;5453;50.852;7.102;2023-10-09T07:11:08;16.10;99.90
10802;DHT22;5453;50.852;7.102;2023-10-09T07:13:56;16.20;99.90
10802;DHT22;5453;50.852;7.102;2023-10-09T07:16:30;16.40;99.90
10802;DHT22;5453;50.852;7.102;2023-10-09T07:19:08;16.40;99.90
10802;DHT22;5453;50.852;7.102;2023-10-09T07:22:04;16.40;99.90
10802;DHT22;5453;50.852;7.102;2023-10-09T07:24:47;16.50;99.90
10802;DHT22;5453;50.852;7.102;2023-10-09T07:27:28;16.50;99.90
10802;DHT22;5453;50.852;7.102;2023-10-09T07:30:15;16.60;99.90
10802;DHT22;5453;50.852;7.102;2023-10-09T07:33:04;16.80;99.90
10802;DHT22;5453;50.852;7.102;2023-10-09T07:35:48;17.10;99.90
10802;DHT22;5453;50.852;7.102;2023-10-09T07:38:28;17.30;99.90
10802;DHT22;5453;50.852;7.102;2023-10-09T07:41:01;17.50;99.90
10802;DHT22;5453;50.852;7.102;2023-10-09T07:44:01;17.60;99.90
10802;DHT22;5453;50.852;7.102;2023-10-09T07:46:49;17.80;99.90
10802;DHT22;5453;50.852;7.102;2023-10-09T07:49:46;17.90;99.90
10802;DHT22;5453;50.852;7.102;2023-10-09T07:52:24;18.00;99.90
10802;DHT22;5453;50.852;7.102;2023-10-09T07:55:01;18.00;99.90
10802;DHT22;5453;50.852;7.102;2023-10-09T07:57:34;18.10;99.90
10802;DHT22;5453;50.852;7.102;2023-10-09T08:00:13;18.20;99.90
10802;DHT22;5453;50.852;7.102;2023-10-09T08:03:00;18.30;99.90
10802;DHT22;5453;50.852;7.102;2023-10-09T08:05:44;18.40;99.90
10802;DHT22;5453;50.852;7.102;2023-10-09T08:08:19;18.50;99.90
10802;DHT22;5453;50.852;7.102;2023-10-09T08:11:09;18.50;99.90
10802;DHT22;5453;50.852;7.102;2023-10-09T08:14:00;18.60;99.90
10802;DHT22;5453;50.852;7.102;2023-10-09T08:16:33;18.60;99.90
10802;DHT22;5453;50.852;7.102;2023-10-09T08:19:08;18.70;99.90
10802;DHT22;5453;50.852;7.102;2023-10-09T08:22:07;18.70;99.90
10802;DHT22;5453;50.852;7.102;2023-10-09T08:25:08;18.80;99.90
10802;DHT22;5453;50.852;7.102;2023-10-09T08:27:58;18.80;99.90
10802;DHT22;5453;50.852;7.102;2023-10-09T08:31:02;18.90;99.90
10802;DHT22;5453;50.852;7.102;2023-10-09T08:33:33;18.90;99.90
10802;DHT22;5453;50.852;7.102;2023-10-09T08:36:19;19.00;99.90
10802;DHT22;5453;50.852;7.102;2023-10-09T08:38:55;19.00;99.90
10802;DHT22;5453;50.852;7.102;2023-10-09T08:41:29;19.00;99.90
10802;DHT22;5453;50.852;7.102;2023-10-09T08:44:02;19.00;99.90
10802;DHT22;5453;50.852;7.102;2023-10-09T08:46:36;19.10;99.90
10802;DHT22;5453;50.852;7.102;2023-10-09T08:49:08;19.10;99.90
10802;DHT22;5453;50.852;7.102;2023-10-09T08:51:41;19.10;99.90
10802;DHT22;5453;50.852;7.102;2023-10-09T08:54:15;19.10;99.90
10802;DHT22;5453;50.852;7.102;2023-10-09T08:56:48;19.10;99.90
10802;DHT22;5453;50.852;7.102;2023-10-09T08:59:25;19.10;99.90
10802;DHT22;5453;50.852;7.102;2023-10-09T09:01:57;19.10;99.90
10802;DHT22;5453;50.852;7.102;2023-10-09T09:04:34;19.10;99.90
10802;DHT22;5453;50.852;7.102;2023-10-09T09:07:24;19.10;99.90
10802;DHT22;5453;50.852;7.102;2023-10-09T09:10:01;19.10;99.90
10802;DHT22;5453;50.852;7.102;2023-10-09T09:12:48;19.20;99.90
10802;DHT22;5453;50.852;7.102;2023-10-09T09:15:24;19.20;99.90
10802;DHT22;5453;50.852;7.102;2023-10-09T09:18:04;19.20;99.90
10802;DHT22;5453;50.852;7.102;2023-10-09T09:20:39;19.20;99.90
10802;DHT22;5453;50.852;7.102;2023-10-09T09:23:12;19.20;99.90
10802;DHT22;5453;50.852;7.102;2023-10-09T09:25:47;19.20;99.90
10802;DHT22;5453;50.852;7.102;2023-10-09T09:28:32;19.20;99.90
10802;DHT22;5453;50.852;7.102;2023-10-09T09:31:09;19.20;99.90
10802;DHT22;5453;50.852;7.102;2023-10-09T09:33:44;19.10;99.90
10802;DHT22;5453;50.852;7.102;2023-10-09T09:36:18;19.10;99.90
10802;DHT22;5453;50.852;7.102;2023-10-09T09:38:58;19.20;99.90
10802;DHT22;5453;50.852;7.102;2023-10-09T09:41:33;19.30;99.90
10802;DHT22;5453;50.852;7.102;2023-10-09T09:44:06;19.30;99.90
10802;DHT22;5453;50.852;7.102;2023-10-09T09:46:39;19.40;99.90
10802;DHT22;5453;50.852;7.102;2023-10-09T09:49:13;19.40;99.90
10802;DHT22;5453;50.852;7.102;2023-10-09T09:51:52;19.50;99.90
10802;DHT22;5453;50.852;7.102;2023-10-09T09:54:24;19.70;99.90
10802;DHT22;5453;50.852;7.102;2023-10-09T09:57:02;19.80;99.90
10802;DHT22;5453;50.852;7.102;2023-10-09T09:59:39;19.90;99.90
10802;DHT22;5453;50.852;7.102;2023-10-09T10:02:28;19.90;99.90
10802;DHT22;5453;50.852;7.102;2023-10-09T10:05:07;20.00;99.90
10802;DHT22;5453;50.852;7.102;2023-10-09T10:07:42;20.10;99.90
10802;DHT22;5453;50.852;7.102;2023-10-09T10:10:36;20.10;99.90
10802;DHT22;5453;50.852;7.102;2023-10-09T10:13:11;20.10;99.90
10802;DHT22;5453;50.852;7.102;2023-10-09T10:15:59;20.20;99.90
10802;DHT22;5453;50.852;7.102;2023-10-09T10:18:32;20.50;99.90
10802;DHT22;5453;50.852;7.102;2023-10-09T10:21:14;20.70;99.90
10802;DHT22;5453;50.852;7.102;2023-10-09T10:23:48;21.00;99.90
10802;DHT22;5453;50.852;7.102;2023-10-09T10:26:21;21.10;99.90
10802;DHT22;5453;50.852;7.102;2023-10-09T10:29:16;21.20;99.90
10802;DHT22;5453;50.852;7.102;2023-10-09T10:31:56;21.40;99.90
10802;DHT22;5453;50.852;7.102;2023-10-09T10:34:53;21.50;99.90
10802;DHT22;5453;50.852;7.102;2023-10-09T10:37:35;21.50;99.90
10802;DHT22;5453;50.852;7.102;2023-10-09T10:40:22;21.60;99.90
10802;DHT22;5453;50.852;7.102;2023-10-09T10:43:15;21.50;99.90
10802;DHT22;5453;50.852;7.102;2023-10-09T10:46:04;21.60;99.90
10802;DHT22;5453;50.852;7.102;2023-10-09T10:48:44;21.60;99.90
10802;DHT22;5453;50.852;7.102;2023-10-09T10:51:17;21.60;99.90
10802;DHT22;5453;50.852;7.102;2023-10-09T10:53:52;21.60;99.90
10802;DHT22;5453;50.852;7.102;2023-10-09T10:56:46;21.60;99.90
10802;DHT22;5453;50.852;7.102;2023-10-09T10:59:22;21.60;99.90
10802;DHT22;5453;50.852;7.102;2023-10-09T11:01:57;21.60;99.90
10802;DHT22;5453;50.852;7.102;2023-10-09T11:04:45;21.60;99.90
10802;DHT22;5453;50.852;7.102;2023-10-09T11:07:24;21.60;99.90
10802;DHT22;5453;50.852;7.102;2023-10-09T11:09:58;21.70;99.90
10802;DHT22;5453;50.852;7.102;2023-10-09T11:12:43;21.70;99.90
10802;DHT22;5453;50.852;7.102;2023-10-09T11:15:38;21.70;99.90
10802;DHT22;5453;50.852;7.102;2023-10-09T11:18:16;21.70;99.90
10802;DHT22;5453;50.852;7.102;2023-10-09T11:20:51;21.70;99.90
10802;DHT22;5453;50.852;7.102;2023-10-09T11:23:48;21.70;99.90
10802;DHT22;5453;50.852;7.102;2023-10-09T11:26:29;21.80;99.90
10802;DHT22;5453;50.852;7.102;2023-10-09T11:29:09;21.90;99.90
10802;DHT22;5453;50.852;7.102;2023-10-09T11:32:01;21.80;99.90
10802;DHT22;5453;50.852;7.102;2023-10-09T11:34:37;21.80;99.90
10802;DHT22;5453;50.852;7.102;2023-10-09T11:37:13;21.80;99.90
10802;DHT22;5453;50.852;7.102;2023-10-09T11:39:46;21.80;99.90
10802;DHT22;5453;50.852;7.102;2023-10-09T11:42:30;21.80;99.90
10802;DHT22;5453;50.852;7.102;2023-10-09T11:45:19;21.80;99.90
10802;DHT22;5453;50.852;7.102;2023-10-09T11:47:54;21.80;99.90
10802;DHT22;5453;50.852;7.102;2023-10-09T11:50:40;21.80;99.90
10802;DHT22;5453;50.852;7.102;2023-10-09T11:53:22;21.80;99.90
10802;DHT22;5453;50.852;7.102;2023-10-09T11:56:05;21.80;99.90
10802;DHT22;5453;50.852;7.102;2023-10-09T11:58:44;21.90;99.90
10802;DHT22;5453;50.852;7.102;2023-10-09T12:01:20;21.90;99.90
10802;DHT22;5453;50.852;7.102;2023-10-09T12:03:53;21.90;99.90
10802;DHT22;5453;50.852;7.102;2023-10-09T12:06:28;21.90;99.90
10802;DHT22;5453;50.852;7.102;2023-10-09T12:09:03;21.90;99.90
10802;DHT22;5453;50.852;7.102;2023-10-09T12:11:36;21.90;99.90
10802;DHT22;5453;50.852;7.102;2023-10-09T12:14:08;22.00;99.90
10802;DHT22;5453;50.852;7.102;2023-10-09T12:16:44;22.00;99.90
10802;DHT22;5453;50.852;7.102;2023-10-09T12:19:20;22.00;99.90
10802;DHT22;5453;50.852;7.102;2023-10-09T12:21:55;22.00;99.90
10802;DHT22;5453;50.852;7.102;2023-10-09T12:24:31;22.00;99.90
10802;DHT22;5453;50.852;7.102;2023-10-09T12:27:04;22.00;99.90
10802;DHT22;5453;50.852;7.102;2023-10-09T12:29:41;22.00;99.90
10802;DHT22;5453;50.852;7.102;2023-10-09T12:32:15;22.00;99.90
10802;DHT22;5453;50.852;7.102;2023-10-09T12:34:51;22.10;99.90
10802;DHT22;5453;50.852;7.102;2023-10-09T12:37:24;22.10;99.90
10802;DHT22;5453;50.852;7.102;2023-10-09T12:39:57;22.00;99.90
10802;DHT22;5453;50.852;7.102;2023-10-09T12:42:29;22.00;99.90
10802;DHT22;5453;50.852;7.102;2023-10-09T12:45:04;22.00;99.90
10802;DHT22;5453;50.852;7.102;2023-10-09T12:47:39;21.90;99.90
10802;DHT22;5453;50.852;7.102;2023-10-09T12:50:13;22.00;99.90
10802;DHT22;5453;50.852;7.102;2023-10-09T12:52:50;22.00;99.90
10802;DHT22;5453;50.852;7.102;2023-10-09T12:55:22;21.90;99.90
10802;DHT22;5453;50.852;7.102;2023-10-09T12:58:02;21.90;99.90
10802;DHT22;5453;50.852;7.102;2023-10-09T13:00:37;21.90;99.90
10802;DHT22;5453;50.852;7.102;2023-10-09T13:03:14;21.90;99.90
10802;DHT22;5453;50.852;7.102;2023-10-09T13:05:52;21.90;99.90
10802;DHT22;5453;50.852;7.102;2023-10-09T13:08:28;21.80;99.90
10802;DHT22;5453;50.852;7.102;2023-10-09T13:11:06;21.80;99.90
10802;DHT22;5453;50.852;7.102;2023-10-09T13:13:42;21.80;99.90
10802;DHT22;5453;50.852;7.102;2023-10-09T13:16:19;21.80;99.90
10802;DHT22;5453;50.852;7.102;2023-10-09T13:18:57;21.70;99.90
10802;DHT22;5453;50.852;7.102;2023-10-09T13:21:38;21.70;99.90
10802;DHT22;5453;50.852;7.102;2023-10-09T13:24:12;21.70;99.90
10802;DHT22;5453;50.852;7.102;2023-10-09T13:26:49;21.70;99.90
10802;DHT22;5453;50.852;7.102;2023-10-09T13:29:24;21.70;99.90
10802;DHT22;5453;50.852;7.102;2023-10-09T13:31:57;21.60;99.90
10802;DHT22;5453;50.852;7.102;2023-10-09T13:34:33;21.60;99.90
10802;DHT22;5453;50.852;7.102;2023-10-09T13:37:05;21.60;99.90
10802;DHT22;5453;50.852;7.102;2023-10-09T13:39:43;21.60;99.90
10802;DHT22;5453;50.852;7.102;2023-10-09T13:42:24;21.50;99.90
10802;DHT22;5453;50.852;7.102;2023-10-09T13:44:56;21.50;99.90
10802;DHT22;5453;50.852;7.102;2023-10-09T13:47:35;21.50;99.90
10802;DHT22;5453;50.852;7.102;2023-10-09T13:50:08;21.50;99.90
10802;DHT22;5453;50.852;7.102;2023-10-09T13:52:41;21.50;99.90
10802;DHT22;5453;50.852;7.102;2023-10-09T13:55:15;21.50;99.90
10802;DHT22;5453;50.852;7.102;2023-10-09T13:57:47;21.50;99.90
10802;DHT22;5453;50.852;7.102;2023-10-09T14:00:20;21.50;99.90
10802;DHT22;5453;50.852;7.102;2023-10-09T14:03:06;21.50;99.90
10802;DHT22;5453;50.852;7.102;2023-10-09T14:05:43;21.50;99.90
10802;DHT22;5453;50.852;7.102;2023-10-09T14:08:25;21.50;99.90
10802;DHT22;5453;50.852;7.102;2023-10-09T14:11:01;21.50;99.90
10802;DHT22;5453;50.852;7.102;2023-10-09T14:13:34;21.50;99.90
10802;DHT22;5453;50.852;7.102;2023-10-09T14:16:06;21.50;99.90
10802;DHT22;5453;50.852;7.102;2023-10-09T14:18:57;21.50;99.90
10802;DHT22;5453;50.852;7.102;2023-10-09T14:21:31;21.50;99.90
10802;DHT22;5453;50.852;7.102;2023-10-09T14:24:04;21.50;99.90
10802;DHT22;5453;50.852;7.102;2023-10-09T14:26:47;21.40;99.90
10802;DHT22;5453;50.852;7.102;2023-10-09T14:29:22;21.50;99.90
10802;DHT22;5453;50.852;7.102;2023-10-09T14:31:57;21.50;99.90
10802;DHT22;5453;50.852;7.102;2023-10-09T14:34:33;21.50;99.90
10802;DHT22;5453;50.852;7.102;2023-10-09T14:37:10;21.60;99.90
10802;DHT22;5453;50.852;7.102;2023-10-09T14:39:43;21.60;99.90
10802;DHT22;5453;50.852;7.102;2023-10-09T14:42:20;21.60;99.90
10802;DHT22;5453;50.852;7.102;2023-10-09T14:44:55;21.60;99.90
10802;DHT22;5453;50.852;7.102;2023-10-09T14:47:27;21.60;99.90
10802;DHT22;5453;50.852;7.102;2023-10-09T14:49:59;21.60;99.90
10802;DHT22;5453;50.852;7.102;2023-10-09T14:52:39;21.50;99.90
10802;DHT22;5453;50.852;7.102;2023-10-09T14:55:11;21.50;99.90
10802;DHT22;5453;50.852;7.102;2023-10-09T14:57:45;21.50;99.90
10802;DHT22;5453;50.852;7.102;2023-10-09T15:00:17;21.50;99.90
10802;DHT22;5453;50.852;7.102;2023-10-09T15:02:53;21.50;99.90
10802;DHT22;5453;50.852;7.102;2023-10-09T15:05:26;21.50;99.90
10802;DHT22;5453;50.852;7.102;2023-10-09T15:08:01;21.50;99.90
10802;DHT22;5453;50.852;7.102;2023-10-09T15:10:34;21.40;99.90
10802;DHT22;5453;50.852;7.102;2023-10-09T15:13:08;21.40;99.90
10802;DHT22;5453;50.852;7.102;2023-10-09T15:15:41;21.40;99.90
10802;DHT22;5453;50.852;7.102;2023-10-09T15:18:14;21.30;99.90
10802;DHT22;5453;50.852;7.102;2023-10-09T15:20:49;21.30;99.90
10802;DHT22;5453;50.852;7.102;2023-10-09T15:23:22;21.20;99.90
10802;DHT22;5453;50.852;7.102;2023-10-09T15:25:54;21.10;99.90
10802;DHT22;5453;50.852;7.102;2023-10-09T15:28:28;21.10;99.90
10802;DHT22;5453;50.852;7.102;2023-10-09T15:31:07;21.00;99.90
10802;DHT22;5453;50.852;7.102;2023-10-09T15:33:41;21.00;99.90
10802;DHT22;5453;50.852;7.102;2023-10-09T15:36:15;21.00;99.90
10802;DHT22;5453;50.852;7.102;2023-10-09T15:38:49;20.80;99.90
10802;DHT22;5453;50.852;7.102;2023-10-09T15:41:21;20.80;99.90
10802;DHT22;5453;50.852;7.102;2023-10-09T15:43:56;20.80;99.90
10802;DHT22;5453;50.852;7.102;2023-10-09T15:46:29;20.70;99.90
10802;DHT22;5453;50.852;7.102;2023-10-09T15:49:05;20.70;99.90
10802;DHT22;5453;50.852;7.102;2023-10-09T15:51:40;20.70;99.90
10802;DHT22;5453;50.852;7.102;2023-10-09T15:54:14;20.60;99.90
10802;DHT22;5453;50.852;7.102;2023-10-09T15:56:49;20.60;99.90
10802;DHT22;5453;50.852;7.102;2023-10-09T15:59:24;20.60;99.90
10802;DHT22;5453;50.852;7.102;2023-10-09T16:01:56;20.60;99.90
10802;DHT22;5453;50.852;7.102;2023-10-09T16:04:29;20.60;99.90
10802;DHT22;5453;50.852;7.102;2023-10-09T16:07:07;20.50;99.90
10802;DHT22;5453;50.852;7.102;2023-10-09T16:09:40;20.50;99.90
10802;DHT22;5453;50.852;7.102;2023-10-09T16:12:13;20.50;99.90
10802;DHT22;5453;50.852;7.102;2023-10-09T16:14:46;20.40;99.90
10802;DHT22;5453;50.852;7.102;2023-10-09T16:17:19;20.40;99.90
10802;DHT22;5453;50.852;7.102;2023-10-09T16:19:51;20.30;99.90
10802;DHT22;5453;50.852;7.102;2023-10-09T16:22:24;20.20;99.90
10802;DHT22;5453;50.852;7.102;2023-10-09T16:24:59;20.20;99.90
10802;DHT22;5453;50.852;7.102;2023-10-09T16:27:40;20.10;99.90
10802;DHT22;5453;50.852;7.102;2023-10-09T16:30:19;20.10;99.90
10802;DHT22;5453;50.852;7.102;2023-10-09T16:32:52;20.00;99.90
10802;DHT22;5453;50.852;7.102;2023-10-09T16:35:24;19.90;99.90
10802;DHT22;5453;50.852;7.102;2023-10-09T16:37:56;19.90;99.90
10802;DHT22;5453;50.852;7.102;2023-10-09T16:40:29;19.90;99.90
10802;DHT22;5453;50.852;7.102;2023-10-09T16:43:05;19.80;99.90
10802;DHT22;5453;50.852;7.102;2023-10-09T16:45:45;19.70;99.90
10802;DHT22;5453;50.852;7.102;2023-10-09T16:48:17;19.70;99.90
10802;DHT22;5453;50.852;7.102;2023-10-09T16:50:50;19.60;99.90
10802;DHT22;5453;50.852;7.102;2023-10-09T16:53:25;19.60;99.90
10802;DHT22;5453;50.852;7.102;2023-10-09T16:56:00;19.50;99.90
10802;DHT22;5453;50.852;7.102;2023-10-09T16:58:40;19.50;99.90